Time;durP1;ratioP1;P1;durP2;ratioP2;P2;SDS_P1;SDS_P2;PMS_P1;PMS_P2;Temp;Humidity;BMP_temperature;BMP_pressure;BME280_temperature;BME280_humidity;BME280_pressure;Samples;Min_cycle;Max_cycle;Signal;HPM_P1;HPM_P2
2023/01/26 00:00:33;;;;;;;42.97;24.40;;;;;;;1.24;59.50;101456.94;20986317;28;20199;-86
2023/01/26 00:10:36;;;;;;;45.53;23.77;;;;;;;0.99;60.15;101422.94;21009082;28;20516;-89
2023/01/26 00:20:38;;;;;;;45.73;25.00;;;;;;;0.84;58.82;101433.47;21008499;28;20504;-86
2023/01/26 00:30:42;;;;;;;43.90;23.73;;;;;;;0.62;60.97;101389.63;21004786;28;20207;-87
2023/01/26 00:40:45;;;;;;;43.90;22.70;;;;;;;0.77;59.92;101372.75;20995715;28;20211;-85
2023/01/26 00:50:50;;;;;;;41.37;22.90;;;;;;;0.34;62.07;101367.13;20994200;28;20310;-85
2023/01/26 01:00:52;;;;;;;47.00;24.73;;;;;;;0.90;61.20;101352.50;20973582;28;20213;-86
2023/01/26 01:11:07;;;;;;;48.67;26.00;;;;;;;0.91;61.69;101360.56;20980686;28;20288;-86
2023/01/26 01:21:11;;;;;;;46.73;24.77;;;;;;;1.00;63.06;101350.06;20973755;28;20195;-88
2023/01/26 01:31:15;;;;;;;47.93;24.97;;;;;;;1.27;62.28;101332.13;20985071;28;20211;-88
2023/01/26 01:41:19;;;;;;;51.90;26.07;;;;;;;1.38;62.85;101336.03;20972991;28;20272;-88
2023/01/26 01:51:37;;;;;;;45.73;23.73;;;;;;;1.10;63.92;101331.06;20992399;28;20231;-85
2023/01/26 02:01:40;;;;;;;48.63;25.10;;;;;;;1.39;62.39;101316.47;20979326;28;20240;-85
2023/01/26 02:11:44;;;;;;;41.37;23.27;;;;;;;1.17;64.05;101301.44;20913731;28;20224;-86
2023/01/26 02:21:48;;;;;;;51.07;23.80;;;;;;;1.20;64.19;101306.50;20897834;28;20204;-85
2023/01/26 02:31:52;;;;;;;43.60;21.30;;;;;;;1.72;61.75;101290.34;20932734;28;20501;-86
2023/01/26 02:52:19;;;;;;;45.20;23.43;;;;;;;1.50;63.68;101292.72;20889227;28;20247;-89
2023/01/26 03:02:28;;;;;;;50.70;24.10;;;;;;;1.45;63.37;101296.22;20869040;28;20192;-86
2023/01/26 03:12:31;;;;;;;49.13;25.97;;;;;;;1.35;64.28;101293.16;20913562;28;20274;-87
2023/01/26 03:32:54;;;;;;;55.70;25.43;;;;;;;0.81;65.78;101279.25;20929213;28;20512;-86
2023/01/26 04:24:51;;;;;;;43.27;22.60;;;;;;;1.99;62.85;101265.91;20985328;28;20207;-87
2023/01/26 04:34:53;;;;;;;45.80;22.90;;;;;;;1.61;63.29;101266.25;20988126;28;20227;-85
2023/01/26 04:44:57;;;;;;;54.50;25.17;;;;;;;1.39;64.24;101261.19;20979679;28;20217;-85
2023/01/26 04:55:01;;;;;;;51.43;25.03;;;;;;;1.54;63.48;101252.50;20980025;28;20689;-86
2023/01/26 05:05:06;;;;;;;55.40;25.73;;;;;;;1.52;64.31;101259.31;20982790;28;20223;-86
2023/01/26 05:15:09;;;;;;;52.87;25.77;;;;;;;1.60;65.37;101256.25;21023644;28;20215;-88
2023/01/26 05:25:24;;;;;;;54.63;26.03;;;;;;;1.51;64.99;101257.63;20975160;28;20199;-85
2023/01/26 05:35:36;;;;;;;58.90;28.70;;;;;;;1.76;63.70;101263.88;20996793;28;20226;-88
2023/01/26 05:45:42;;;;;;;61.43;29.47;;;;;;;1.93;63.82;101264.06;20993392;28;20199;-86
2023/01/26 05:55:46;;;;;;;64.03;28.53;;;;;;;1.49;64.63;101265.34;20970268;28;20226;-85
2023/01/26 06:05:53;;;;;;;66.43;30.20;;;;;;;1.79;64.90;101277.25;20996410;28;20701;-85
2023/01/26 06:16:14;;;;;;;60.50;30.63;;;;;;;0.78;68.43;101282.47;21036083;28;20223;-86
2023/01/26 06:26:16;;;;;;;62.90;29.70;;;;;;;1.15;66.65;101281.47;20963794;28;20558;-86
2023/01/26 06:36:19;;;;;;;60.57;27.90;;;;;;;1.85;65.45;101275.47;20986516;28;20539;-86
2023/01/26 06:46:22;;;;;;;53.90;25.70;;;;;;;1.01;68.20;101286.28;20976735;28;20552;-88
2023/01/26 06:56:28;;;;;;;52.03;24.17;;;;;;;1.95;64.04;101271.06;20985597;28;20219;-85
2023/01/26 07:06:36;;;;;;;46.17;23.17;;;;;;;1.68;65.74;101270.59;20997901;28;20260;-85
2023/01/26 07:16:38;;;;;;;45.80;22.50;;;;;;;1.49;66.30;101287.47;21002254;28;20214;-87
2023/01/26 07:26:41;;;;;;;46.03;22.33;;;;;;;1.34;66.06;101280.41;20985995;28;20645;-85
2023/01/26 07:36:44;;;;;;;40.83;20.67;;;;;;;2.00;64.69;101273.97;20990643;28;20222;-85
2023/01/26 07:46:46;;;;;;;38.37;19.77;;;;;;;1.28;65.99;101286.00;21006381;28;20230;-85
2023/01/26 07:56:53;;;;;;;41.60;20.53;;;;;;;1.51;66.43;101274.22;21008479;28;20222;-87
2023/01/26 08:06:57;;;;;;;36.13;19.43;;;;;;;1.37;67.40;101279.91;21012529;28;20282;-86
2023/01/26 08:16:59;;;;;;;36.73;19.40;;;;;;;2.17;64.77;101274.97;20997106;28;20215;-87
2023/01/26 08:27:02;;;;;;;38.37;19.17;;;;;;;2.02;65.16;101288.41;20991119;28;20233;-85
2023/01/26 08:37:04;;;;;;;39.77;19.83;;;;;;;1.54;65.58;101309.72;21018014;28;20273;-84
2023/01/26 08:47:06;;;;;;;37.93;20.40;;;;;;;1.91;64.88;101316.88;21035032;28;20257;-87
2023/01/26 08:57:11;;;;;;;35.33;18.47;;;;;;;2.01;65.06;101314.38;21020747;28;20280;-86
2023/01/26 09:07:13;;;;;;;35.70;17.43;;;;;;;1.67;66.63;101309.53;20992148;28;20532;-85
2023/01/26 09:17:15;;;;;;;37.27;19.47;;;;;;;2.04;65.24;101319.44;20992830;28;20226;-86
2023/01/26 09:27:17;;;;;;;40.30;19.93;;;;;;;1.85;66.52;101319.75;21000645;28;20221;-86
2023/01/26 09:37:19;;;;;;;38.63;19.53;;;;;;;1.44;69.86;101335.97;20991164;28;20224;-87
2023/01/26 09:47:30;;;;;;;36.70;19.63;;;;;;;1.52;70.59;101332.06;20972556;28;20199;-85
2023/01/26 09:57:37;;;;;;;34.80;18.77;;;;;;;2.24;67.43;101313.63;20956202;28;20642;-87
2023/01/26 10:07:44;;;;;;;34.77;19.17;;;;;;;2.25;67.78;101308.94;20979755;28;20561;-85
2023/01/26 10:17:49;;;;;;;32.07;18.93;;;;;;;2.15;66.37;101310.34;20965431;28;20304;-85
2023/01/26 10:27:51;;;;;;;31.90;18.63;;;;;;;2.20;67.41;101301.34;20971697;28;20244;-85
2023/01/26 10:37:55;;;;;;;32.60;17.50;;;;;;;2.14;66.57;101300.34;20970669;28;20226;-85
2023/01/26 10:48:18;;;;;;;29.23;15.53;;;;;;;2.74;65.70;101291.09;20972019;28;20225;-87
2023/01/26 10:58:51;;;;;;;28.53;16.23;;;;;;;2.55;66.73;101287.56;20997367;28;20627;-85
2023/01/26 11:09:07;;;;;;;25.33;14.93;;;;;;;2.36;66.97;101283.22;20992133;28;20256;-86
2023/01/26 11:19:17;;;;;;;25.37;15.63;;;;;;;2.16;69.32;101278.81;21002897;28;20245;-86
2023/01/26 11:29:31;;;;;;;21.57;12.63;;;;;;;3.00;66.59;101262.03;20998241;28;20242;-85
2023/01/26 11:39:57;;;;;;;22.13;12.80;;;;;;;2.52;68.02;101261.22;21028824;28;20221;-87
2023/01/26 11:50:15;;;;;;;21.77;11.73;;;;;;;2.52;68.85;101247.38;20996981;28;20191;-84
2023/01/26 12:00:22;;;;;;;22.83;12.90;;;;;;;2.40;69.40;101256.75;20983197;28;20219;-86
2023/01/26 12:11:20;;;;;;;23.10;11.97;;;;;;;2.41;69.95;101247.31;21006395;28;20792;-87
2023/01/26 12:21:21;;;;;;;20.97;11.67;;;;;;;2.24;68.95;101246.34;20991974;28;20215;-84
2023/01/26 12:31:33;;;;;;;13.53;7.87;;;;;;;2.52;68.10;101227.13;20981287;28;20255;-87
2023/01/26 12:41:51;;;;;;;16.53;9.17;;;;;;;2.36;68.57;101214.00;21002081;28;20726;-87
2023/01/26 12:51:57;;;;;;;10.13;6.83;;;;;;;1.97;70.84;101202.50;21036729;27;20210;-87
2023/01/26 13:02:29;;;;;;;11.97;7.57;;;;;;;2.44;69.09;101186.78;20992650;28;20592;-86
2023/01/26 13:12:50;;;;;;;9.90;6.97;;;;;;;2.94;68.77;101191.78;20977358;28;20211;-85
2023/01/26 13:22:54;;;;;;;11.63;7.73;;;;;;;2.26;70.64;101199.91;20985223;28;20244;-86
2023/01/26 13:33:22;;;;;;;9.57;6.43;;;;;;;2.33;69.59;101200.63;20994282;28;20219;-86
2023/01/26 13:43:38;;;;;;;10.90;5.93;;;;;;;2.66;69.84;101189.78;20975223;28;20203;-84
2023/01/26 13:54:11;;;;;;;6.37;5.33;;;;;;;2.90;69.53;101190.63;20996458;28;20257;-84
2023/01/26 14:04:17;;;;;;;9.57;5.93;;;;;;;2.66;70.14;101195.31;20964724;28;20276;-86
2023/01/26 14:14:26;;;;;;;8.97;7.37;;;;;;;3.05;70.02;101193.69;20997345;28;20257;-86
2023/01/26 14:24:28;;;;;;;20.90;9.00;;;;;;;2.58;72.77;101186.53;20981770;28;20191;-85
2023/01/26 14:34:31;;;;;;;15.30;7.63;;;;;;;2.09;72.95;101195.06;20980333;28;20248;-86
2023/01/26 14:44:33;;;;;;;21.00;10.03;;;;;;;3.50;69.09;101193.84;21000686;28;20195;-87
2023/01/26 14:54:38;;;;;;;21.63;10.43;;;;;;;3.83;68.15;101195.00;20974827;28;20215;-86
2023/01/26 15:04:48;;;;;;;27.60;12.80;;;;;;;3.19;72.12;101217.28;20966748;28;20289;-85
2023/01/26 15:14:57;;;;;;;23.40;9.73;;;;;;;3.58;68.30;101221.16;20928089;28;20631;-86
2023/01/26 15:25:05;;;;;;;28.47;12.17;;;;;;;3.34;69.56;101219.56;20896133;28;20600;-85
2023/01/26 15:35:32;;;;;;;22.83;11.27;;;;;;;3.19;70.94;101219.22;20899163;28;20285;-85
2023/01/26 15:45:35;;;;;;;40.00;13.87;;;;;;;3.55;70.99;101204.22;20915572;28;20435;-85
2023/01/26 15:55:38;;;;;;;67.20;17.63;;;;;;;3.79;70.07;101202.16;20971541;28;20223;-87
2023/01/26 16:05:40;;;;;;;60.47;19.30;;;;;;;4.02;68.74;101193.69;20925674;28;20565;-90
2023/01/26 16:15:46;;;;;;;75.83;20.93;;;;;;;4.02;68.71;101199.25;20914485;28;20204;-89
2023/01/26 16:25:48;;;;;;;63.23;20.57;;;;;;;4.43;67.69;101199.94;20913337;28;20253;-88
2023/01/26 16:35:52;;;;;;;89.07;22.47;;;;;;;4.24;68.63;101202.94;20894278;28;20341;-88
2023/01/26 16:45:54;;;;;;;89.07;22.53;;;;;;;4.39;68.15;101198.75;20894338;28;20200;-90
2023/01/26 16:55:59;;;;;;;53.67;18.57;;;;;;;3.36;72.18;101202.69;20878777;28;20212;-90
2023/01/26 17:06:02;;;;;;;71.57;20.50;;;;;;;4.10;69.81;101200.75;20944091;28;20223;-88
2023/01/26 17:16:11;;;;;;;105.10;26.70;;;;;;;4.24;68.79;101205.72;21022620;28;20219;-89
2023/01/26 17:26:18;;;;;;;79.57;23.17;;;;;;;3.88;71.31;101217.31;20972662;28;20199;-90
2023/01/26 17:36:21;;;;;;;101.37;22.83;;;;;;;4.45;69.07;101211.63;21014054;28;20512;-88
2023/01/26 17:46:24;;;;;;;122.57;25.27;;;;;;;4.23;70.13;101206.81;21015188;28;20199;-87
2023/01/26 17:56:29;;;;;;;112.23;28.40;;;;;;;4.16;69.69;101210.88;20975624;28;20601;-88
2023/01/26 18:06:31;;;;;;;59.37;19.73;;;;;;;4.68;69.15;101206.72;20971668;28;20216;-90
2023/01/26 18:26:16;;;;;;;90.13;23.43;;;;;;;2.80;68.52;101209.41;20761936;27;20595;-89
2023/01/26 18:36:19;;;;;;;63.70;21.37;;;;;;;2.97;66.99;101210.22;20747138;28;20249;-89
2023/01/26 18:46:24;;;;;;;62.87;20.33;;;;;;;2.41;68.96;101208.50;20713525;28;20264;-88
2023/01/26 18:56:26;;;;;;;64.93;21.73;;;;;;;2.45;70.08;101206.09;20738300;28;20199;-87
2023/01/26 19:06:31;;;;;;;44.77;20.00;;;;;;;1.76;72.98;101213.75;20697566;28;20322;-88
2023/01/26 19:17:43;;;;;;;61.43;20.57;;;;;;;3.46;69.44;101207.75;20988298;27;21271;-89
2023/01/26 19:27:46;;;;;;;71.40;25.27;;;;;;;3.62;69.87;101198.56;20994024;28;20271;-89
2023/01/26 19:37:48;;;;;;;81.03;27.07;;;;;;;3.88;68.21;101188.66;20958297;28;20219;-87
2023/01/26 19:47:52;;;;;;;66.30;23.70;;;;;;;4.11;67.52;101195.94;20949089;28;20272;-89
2023/01/26 19:57:54;;;;;;;94.37;28.00;;;;;;;3.70;68.74;101200.91;20918997;28;20552;-88
2023/01/26 20:07:56;;;;;;;73.93;25.83;;;;;;;3.94;69.09;101202.38;20917935;28;20228;-89
2023/01/26 20:18:02;;;;;;;81.53;26.43;;;;;;;4.14;67.29;101195.38;20929660;28;20234;-89
2023/01/26 20:28:05;;;;;;;77.57;25.10;;;;;;;4.15;67.93;101194.28;20880487;28;20292;-86
2023/01/26 20:38:07;;;;;;;78.03;25.23;;;;;;;3.85;68.86;101191.97;20860112;28;20228;-87
2023/01/26 20:48:09;;;;;;;74.97;24.47;;;;;;;4.19;68.05;101190.78;20866194;28;20216;-85
2023/01/26 20:58:11;;;;;;;71.40;23.07;;;;;;;3.77;69.41;101195.16;20875952;28;20597;-88
2023/01/26 21:08:13;;;;;;;60.30;23.07;;;;;;;3.62;69.51;101198.56;20902899;28;20289;-87
2023/01/26 21:18:17;;;;;;;69.43;24.53;;;;;;;3.76;69.59;101194.31;20872297;28;20597;-88
2023/01/26 21:28:19;;;;;;;68.67;23.40;;;;;;;3.59;70.04;101201.88;20878538;28;20219;-87
2023/01/26 21:38:22;;;;;;;59.80;22.90;;;;;;;3.56;70.63;101207.91;20860449;28;20220;-89
2023/01/26 21:48:34;;;;;;;71.13;22.60;;;;;;;3.72;69.85;101193.16;20882164;28;20208;-87
2023/01/26 21:58:53;;;;;;;43.20;16.20;;;;;;;3.60;69.56;101189.66;20872318;28;20233;-86
2023/01/26 22:08:57;;;;;;;31.80;14.30;;;;;;;3.28;70.24;101184.69;20876622;28;20521;-89
2023/01/26 22:18:59;;;;;;;34.13;12.83;;;;;;;3.04;71.77;101196.22;20875918;28;20227;-86
2023/01/26 22:29:02;;;;;;;38.17;13.70;;;;;;;3.61;69.54;101191.31;20852216;28;20212;-86
2023/01/26 22:39:05;;;;;;;27.90;11.23;;;;;;;3.60;69.39;101190.50;20858071;28;20220;-86
2023/01/26 22:49:08;;;;;;;20.23;7.67;;;;;;;2.88;69.90;101203.44;20880050;28;20258;-87
2023/01/26 22:59:11;;;;;;;17.73;7.03;;;;;;;3.12;69.38;101199.41;20857340;28;20246;-87
2023/01/26 23:09:13;;;;;;;12.47;6.30;;;;;;;3.21;67.59;101208.19;20856392;28;20251;-87
2023/01/26 23:19:16;;;;;;;15.33;6.93;;;;;;;3.27;67.04;101205.22;20860257;28;20204;-87
2023/01/26 23:29:18;;;;;;;16.93;7.30;;;;;;;3.17;67.14;101205.06;20873387;28;20612;-88
2023/01/26 23:39:20;;;;;;;13.80;8.03;;;;;;;2.92;67.41;101210.16;20882848;28;20224;-86
2023/01/26 23:49:23;;;;;;;16.67;7.27;;;;;;;2.82;67.33;101224.72;20853038;28;20239;-89
2023/01/26 23:59:25;;;;;;;13.77;6.13;;;;;;;3.44;65.71;101218.28;20863122;28;20589;-87
